sensor_id;sensor_type;location;lat;lon;timestamp;temperature;humidity
8188;DHT22;4135;49.184;9.722;2023-05-10T00:00:53;21.40;57.10
8188;DHT22;4135;49.184;9.722;2023-05-10T00:03:23;21.40;57.10
8188;DHT22;4135;49.184;9.722;2023-05-10T00:05:52;21.40;57.10
8188;DHT22;4135;49.184;9.722;2023-05-10T00:08:22;21.40;57.10
8188;DHT22;4135;49.184;9.722;2023-05-10T00:10:52;21.40;57.10
8188;DHT22;4135;49.184;9.722;2023-05-10T00:13:22;21.40;57.10
8188;DHT22;4135;49.184;9.722;2023-05-10T00:15:51;21.40;57.20
8188;DHT22;4135;49.184;9.722;2023-05-10T00:18:21;21.40;57.10
8188;DHT22;4135;49.184;9.722;2023-05-10T00:20:50;21.50;57.10
8188;DHT22;4135;49.184;9.722;2023-05-10T00:23:20;21.40;57.60
8188;DHT22;4135;49.184;9.722;2023-05-10T00:25:49;21.50;57.10
8188;DHT22;4135;49.184;9.722;2023-05-10T00:28:19;21.50;57.10
8188;DHT22;4135;49.184;9.722;2023-05-10T00:30:49;21.40;57.00
8188;DHT22;4135;49.184;9.722;2023-05-10T00:33:18;21.40;57.00
8188;DHT22;4135;49.184;9.722;2023-05-10T00:35:48;21.50;57.10
8188;DHT22;4135;49.184;9.722;2023-05-10T00:38:17;21.40;57.00
8188;DHT22;4135;49.184;9.722;2023-05-10T00:40:47;21.50;57.10
8188;DHT22;4135;49.184;9.722;2023-05-10T00:43:16;21.40;57.00
8188;DHT22;4135;49.184;9.722;2023-05-10T00:45:46;21.50;57.10
8188;DHT22;4135;49.184;9.722;2023-05-10T00:48:16;21.50;57.10
8188;DHT22;4135;49.184;9.722;2023-05-10T00:50:46;21.40;57.00
8188;DHT22;4135;49.184;9.722;2023-05-10T00:53:16;21.50;57.00
8188;DHT22;4135;49.184;9.722;2023-05-10T00:55:45;21.50;57.60
8188;DHT22;4135;49.184;9.722;2023-05-10T00:58:15;21.40;57.00
8188;DHT22;4135;49.184;9.722;2023-05-10T01:00:46;21.40;56.90
8188;DHT22;4135;49.184;9.722;2023-05-10T01:03:16;21.50;57.00
8188;DHT22;4135;49.184;9.722;2023-05-10T01:05:46;21.50;57.00
8188;DHT22;4135;49.184;9.722;2023-05-10T01:08:16;21.50;57.00
8188;DHT22;4135;49.184;9.722;2023-05-10T01:10:45;21.40;57.00
8188;DHT22;4135;49.184;9.722;2023-05-10T01:15:58;21.40;56.90
8188;DHT22;4135;49.184;9.722;2023-05-10T01:18:29;21.40;56.90
8188;DHT22;4135;49.184;9.722;2023-05-10T01:21:38;21.40;56.90
8188;DHT22;4135;49.184;9.722;2023-05-10T01:27:37;21.50;57.00
8188;DHT22;4135;49.184;9.722;2023-05-10T01:33:23;21.40;57.10
8188;DHT22;4135;49.184;9.722;2023-05-10T01:38:54;21.40;57.00
8188;DHT22;4135;49.184;9.722;2023-05-10T01:41:41;21.40;56.90
8188;DHT22;4135;49.184;9.722;2023-05-10T01:44:24;21.40;56.90
8188;DHT22;4135;49.184;9.722;2023-05-10T01:47:10;21.40;56.90
8188;DHT22;4135;49.184;9.722;2023-05-10T01:49:49;21.40;57.00
8188;DHT22;4135;49.184;9.722;2023-05-10T01:52:25;21.30;56.80
8188;DHT22;4135;49.184;9.722;2023-05-10T01:55:04;21.40;56.90
8188;DHT22;4135;49.184;9.722;2023-05-10T01:57:36;21.40;57.00
8188;DHT22;4135;49.184;9.722;2023-05-10T02:00:09;21.50;57.00
8188;DHT22;4135;49.184;9.722;2023-05-10T02:02:46;21.40;56.90
8188;DHT22;4135;49.184;9.722;2023-05-10T02:05:17;21.40;56.80
8188;DHT22;4135;49.184;9.722;2023-05-10T02:07:49;21.50;57.00
8188;DHT22;4135;49.184;9.722;2023-05-10T02:10:19;21.40;56.80
8188;DHT22;4135;49.184;9.722;2023-05-10T02:12:50;21.40;56.80
8188;DHT22;4135;49.184;9.722;2023-05-10T02:15:23;21.40;56.80
8188;DHT22;4135;49.184;9.722;2023-05-10T02:17:58;21.40;56.80
8188;DHT22;4135;49.184;9.722;2023-05-10T02:20:30;21.40;56.80
8188;DHT22;4135;49.184;9.722;2023-05-10T02:23:01;21.40;56.80
8188;DHT22;4135;49.184;9.722;2023-05-10T02:25:32;21.40;56.80
8188;DHT22;4135;49.184;9.722;2023-05-10T02:28:04;21.40;56.80
8188;DHT22;4135;49.184;9.722;2023-05-10T02:30:35;21.40;56.80
8188;DHT22;4135;49.184;9.722;2023-05-10T02:33:05;21.40;56.80
8188;DHT22;4135;49.184;9.722;2023-05-10T02:35:35;21.40;56.80
8188;DHT22;4135;49.184;9.722;2023-05-10T02:38:06;21.40;56.80
8188;DHT22;4135;49.184;9.722;2023-05-10T02:40:36;21.40;56.70
8188;DHT22;4135;49.184;9.722;2023-05-10T02:43:11;21.40;56.70
8188;DHT22;4135;49.184;9.722;2023-05-10T02:45:42;21.40;56.80
8188;DHT22;4135;49.184;9.722;2023-05-10T02:48:12;21.50;56.80
8188;DHT22;4135;49.184;9.722;2023-05-10T02:50:44;21.40;56.70
8188;DHT22;4135;49.184;9.722;2023-05-10T02:53:23;21.40;56.70
8188;DHT22;4135;49.184;9.722;2023-05-10T02:55:58;21.40;56.70
8188;DHT22;4135;49.184;9.722;2023-05-10T02:58:28;21.40;56.70
8188;DHT22;4135;49.184;9.722;2023-05-10T03:00:59;21.40;56.70
8188;DHT22;4135;49.184;9.722;2023-05-10T03:03:28;21.40;56.70
8188;DHT22;4135;49.184;9.722;2023-05-10T03:05:58;21.40;56.70
8188;DHT22;4135;49.184;9.722;2023-05-10T03:08:28;21.40;56.70
8188;DHT22;4135;49.184;9.722;2023-05-10T03:11:39;21.40;56.70
8188;DHT22;4135;49.184;9.722;2023-05-10T03:14:19;21.40;56.70
8188;DHT22;4135;49.184;9.722;2023-05-10T03:17:01;21.40;56.70
8188;DHT22;4135;49.184;9.722;2023-05-10T03:20:25;21.40;56.70
8188;DHT22;4135;49.184;9.722;2023-05-10T03:22:37;21.40;56.70
8188;DHT22;4135;49.184;9.722;2023-05-10T03:25:09;21.40;56.70
8188;DHT22;4135;49.184;9.722;2023-05-10T03:27:42;21.40;56.60
8188;DHT22;4135;49.184;9.722;2023-05-10T03:30:12;21.40;56.60
8188;DHT22;4135;49.184;9.722;2023-05-10T03:32:42;21.40;56.60
8188;DHT22;4135;49.184;9.722;2023-05-10T03:35:12;21.40;56.60
8188;DHT22;4135;49.184;9.722;2023-05-10T03:37:44;21.40;56.60
8188;DHT22;4135;49.184;9.722;2023-05-10T03:40:14;21.40;56.60
8188;DHT22;4135;49.184;9.722;2023-05-10T03:42:44;21.40;56.60
8188;DHT22;4135;49.184;9.722;2023-05-10T03:45:13;21.40;56.60
8188;DHT22;4135;49.184;9.722;2023-05-10T03:47:43;21.40;56.60
8188;DHT22;4135;49.184;9.722;2023-05-10T03:50:12;21.40;56.60
8188;DHT22;4135;49.184;9.722;2023-05-10T03:52:42;21.40;56.60
8188;DHT22;4135;49.184;9.722;2023-05-10T03:55:11;21.40;56.50
8188;DHT22;4135;49.184;9.722;2023-05-10T03:57:41;21.40;56.60
8188;DHT22;4135;49.184;9.722;2023-05-10T04:00:10;21.40;56.50
8188;DHT22;4135;49.184;9.722;2023-05-10T04:02:40;21.40;56.50
8188;DHT22;4135;49.184;9.722;2023-05-10T04:05:10;21.40;56.60
8188;DHT22;4135;49.184;9.722;2023-05-10T04:07:39;21.40;56.50
8188;DHT22;4135;49.184;9.722;2023-05-10T04:10:09;21.40;56.50
8188;DHT22;4135;49.184;9.722;2023-05-10T04:12:38;21.40;56.50
8188;DHT22;4135;49.184;9.722;2023-05-10T04:15:08;21.40;56.50
8188;DHT22;4135;49.184;9.722;2023-05-10T04:17:38;21.40;56.50
8188;DHT22;4135;49.184;9.722;2023-05-10T04:20:07;21.40;56.50
8188;DHT22;4135;49.184;9.722;2023-05-10T04:22:37;21.40;56.50
8188;DHT22;4135;49.184;9.722;2023-05-10T04:25:07;21.40;56.70
8188;DHT22;4135;49.184;9.722;2023-05-10T04:27:37;21.40;56.70
8188;DHT22;4135;49.184;9.722;2023-05-10T04:30:07;21.40;57.40
8188;DHT22;4135;49.184;9.722;2023-05-10T04:32:37;21.40;56.70
8188;DHT22;4135;49.184;9.722;2023-05-10T04:35:06;21.40;56.70
8188;DHT22;4135;49.184;9.722;2023-05-10T04:37:36;21.40;56.80
8188;DHT22;4135;49.184;9.722;2023-05-10T04:40:06;21.40;56.90
8188;DHT22;4135;49.184;9.722;2023-05-10T04:42:36;21.40;56.80
8188;DHT22;4135;49.184;9.722;2023-05-10T04:45:06;21.50;57.50
8188;DHT22;4135;49.184;9.722;2023-05-10T04:47:36;21.40;56.70
8188;DHT22;4135;49.184;9.722;2023-05-10T04:50:06;21.40;56.70
8188;DHT22;4135;49.184;9.722;2023-05-10T04:52:36;21.40;56.70
8188;DHT22;4135;49.184;9.722;2023-05-10T04:55:06;21.40;56.80
8188;DHT22;4135;49.184;9.722;2023-05-10T04:57:38;21.40;57.00
8188;DHT22;4135;49.184;9.722;2023-05-10T05:00:08;21.40;56.90
8188;DHT22;4135;49.184;9.722;2023-05-10T05:02:38;21.40;57.00
8188;DHT22;4135;49.184;9.722;2023-05-10T05:05:08;21.40;57.20
8188;DHT22;4135;49.184;9.722;2023-05-10T05:07:37;21.40;57.50
8188;DHT22;4135;49.184;9.722;2023-05-10T05:10:10;21.40;57.60
8188;DHT22;4135;49.184;9.722;2023-05-10T05:12:39;21.40;57.80
8188;DHT22;4135;49.184;9.722;2023-05-10T05:15:09;21.40;57.70
8188;DHT22;4135;49.184;9.722;2023-05-10T05:17:39;21.40;57.80
8188;DHT22;4135;49.184;9.722;2023-05-10T05:20:10;21.40;57.50
8188;DHT22;4135;49.184;9.722;2023-05-10T05:22:40;21.40;57.40
8188;DHT22;4135;49.184;9.722;2023-05-10T05:25:09;21.30;57.30
8188;DHT22;4135;49.184;9.722;2023-05-10T05:27:39;21.30;57.40
8188;DHT22;4135;49.184;9.722;2023-05-10T05:30:09;21.30;57.30
8188;DHT22;4135;49.184;9.722;2023-05-10T05:32:38;21.30;57.30
8188;DHT22;4135;49.184;9.722;2023-05-10T05:35:08;21.30;57.30
8188;DHT22;4135;49.184;9.722;2023-05-10T05:37:38;21.30;57.30
8188;DHT22;4135;49.184;9.722;2023-05-10T05:40:08;21.30;57.30
8188;DHT22;4135;49.184;9.722;2023-05-10T05:42:37;21.20;57.20
8188;DHT22;4135;49.184;9.722;2023-05-10T05:45:08;21.20;57.20
8188;DHT22;4135;49.184;9.722;2023-05-10T05:47:38;21.20;57.20
8188;DHT22;4135;49.184;9.722;2023-05-10T05:50:08;21.20;57.20
8188;DHT22;4135;49.184;9.722;2023-05-10T05:52:38;21.20;57.20
8188;DHT22;4135;49.184;9.722;2023-05-10T05:55:07;21.20;57.10
8188;DHT22;4135;49.184;9.722;2023-05-10T05:57:37;21.20;57.10
8188;DHT22;4135;49.184;9.722;2023-05-10T06:00:07;21.20;57.20
8188;DHT22;4135;49.184;9.722;2023-05-10T06:02:37;21.10;57.00
8188;DHT22;4135;49.184;9.722;2023-05-10T06:05:06;21.10;57.10
8188;DHT22;4135;49.184;9.722;2023-05-10T06:07:36;21.20;57.10
8188;DHT22;4135;49.184;9.722;2023-05-10T06:10:06;21.10;57.10
8188;DHT22;4135;49.184;9.722;2023-05-10T06:12:36;21.10;57.10
8188;DHT22;4135;49.184;9.722;2023-05-10T06:15:06;21.10;57.10
8188;DHT22;4135;49.184;9.722;2023-05-10T06:17:35;21.20;57.80
8188;DHT22;4135;49.184;9.722;2023-05-10T06:20:06;21.10;57.10
8188;DHT22;4135;49.184;9.722;2023-05-10T06:22:35;21.10;57.10
8188;DHT22;4135;49.184;9.722;2023-05-10T06:25:05;21.10;57.20
8188;DHT22;4135;49.184;9.722;2023-05-10T06:27:35;21.10;57.10
8188;DHT22;4135;49.184;9.722;2023-05-10T06:30:05;21.10;57.10
8188;DHT22;4135;49.184;9.722;2023-05-10T06:32:35;21.10;57.10
8188;DHT22;4135;49.184;9.722;2023-05-10T06:35:05;21.10;57.10
8188;DHT22;4135;49.184;9.722;2023-05-10T06:37:34;21.10;57.40
8188;DHT22;4135;49.184;9.722;2023-05-10T06:40:05;21.20;57.40
8188;DHT22;4135;49.184;9.722;2023-05-10T06:42:35;21.20;57.20
8188;DHT22;4135;49.184;9.722;2023-05-10T06:45:05;21.20;57.20
8188;DHT22;4135;49.184;9.722;2023-05-10T06:47:34;21.20;57.10
8188;DHT22;4135;49.184;9.722;2023-05-10T06:50:04;21.20;57.10
8188;DHT22;4135;49.184;9.722;2023-05-10T06:52:34;21.20;57.20
8188;DHT22;4135;49.184;9.722;2023-05-10T06:55:04;21.20;57.30
8188;DHT22;4135;49.184;9.722;2023-05-10T06:57:34;21.20;57.50
8188;DHT22;4135;49.184;9.722;2023-05-10T07:00:04;21.20;57.50
8188;DHT22;4135;49.184;9.722;2023-05-10T07:02:34;21.20;57.50
8188;DHT22;4135;49.184;9.722;2023-05-10T07:05:04;21.20;57.60
8188;DHT22;4135;49.184;9.722;2023-05-10T07:07:34;21.30;57.50
8188;DHT22;4135;49.184;9.722;2023-05-10T07:10:04;21.30;57.50
8188;DHT22;4135;49.184;9.722;2023-05-10T07:12:33;21.30;57.50
8188;DHT22;4135;49.184;9.722;2023-05-10T07:15:03;21.30;57.60
8188;DHT22;4135;49.184;9.722;2023-05-10T07:17:33;21.30;57.70
8188;DHT22;4135;49.184;9.722;2023-05-10T07:20:03;21.30;57.70
8188;DHT22;4135;49.184;9.722;2023-05-10T07:22:32;21.40;57.90
8188;DHT22;4135;49.184;9.722;2023-05-10T07:25:02;21.30;57.80
8188;DHT22;4135;49.184;9.722;2023-05-10T07:27:32;21.30;57.90
8188;DHT22;4135;49.184;9.722;2023-05-10T07:30:01;21.30;58.10
8188;DHT22;4135;49.184;9.722;2023-05-10T07:32:31;21.30;58.00
8188;DHT22;4135;49.184;9.722;2023-05-10T07:35:01;21.30;58.10
8188;DHT22;4135;49.184;9.722;2023-05-10T07:37:30;21.30;58.40
8188;DHT22;4135;49.184;9.722;2023-05-10T07:40:00;21.80;59.20
8188;DHT22;4135;49.184;9.722;2023-05-10T07:42:29;21.40;58.60
8188;DHT22;4135;49.184;9.722;2023-05-10T07:44:59;21.40;58.70
8188;DHT22;4135;49.184;9.722;2023-05-10T07:47:28;21.30;58.70
8188;DHT22;4135;49.184;9.722;2023-05-10T07:49:58;21.30;58.80
8188;DHT22;4135;49.184;9.722;2023-05-10T07:52:27;21.30;58.50
8188;DHT22;4135;49.184;9.722;2023-05-10T07:54:57;21.50;58.70
8188;DHT22;4135;49.184;9.722;2023-05-10T07:57:26;21.30;58.60
8188;DHT22;4135;49.184;9.722;2023-05-10T07:59:56;21.20;58.30
8188;DHT22;4135;49.184;9.722;2023-05-10T08:02:26;21.20;58.40
8188;DHT22;4135;49.184;9.722;2023-05-10T08:04:55;21.20;58.40
8188;DHT22;4135;49.184;9.722;2023-05-10T08:07:25;21.20;58.40
8188;DHT22;4135;49.184;9.722;2023-05-10T08:09:55;21.20;58.40
8188;DHT22;4135;49.184;9.722;2023-05-10T08:12:24;21.30;58.50
8188;DHT22;4135;49.184;9.722;2023-05-10T08:14:54;21.20;58.50
8188;DHT22;4135;49.184;9.722;2023-05-10T08:17:23;21.20;58.50
8188;DHT22;4135;49.184;9.722;2023-05-10T08:19:53;21.20;58.50
8188;DHT22;4135;49.184;9.722;2023-05-10T08:22:22;21.20;58.50
8188;DHT22;4135;49.184;9.722;2023-05-10T08:24:52;21.20;58.40
8188;DHT22;4135;49.184;9.722;2023-05-10T08:27:21;21.20;58.70
8188;DHT22;4135;49.184;9.722;2023-05-10T08:29:51;21.20;58.80
8188;DHT22;4135;49.184;9.722;2023-05-10T08:32:20;21.10;58.50
8188;DHT22;4135;49.184;9.722;2023-05-10T08:34:50;21.20;58.20
8188;DHT22;4135;49.184;9.722;2023-05-10T08:37:19;21.20;58.50
8188;DHT22;4135;49.184;9.722;2023-05-10T08:39:49;21.20;58.70
8188;DHT22;4135;49.184;9.722;2023-05-10T08:42:19;21.20;58.60
8188;DHT22;4135;49.184;9.722;2023-05-10T08:44:52;21.10;58.60
8188;DHT22;4135;49.184;9.722;2023-05-10T08:47:23;21.10;58.60
8188;DHT22;4135;49.184;9.722;2023-05-10T08:49:53;21.20;58.60
8188;DHT22;4135;49.184;9.722;2023-05-10T08:52:24;21.00;57.40
8188;DHT22;4135;49.184;9.722;2023-05-10T08:54:56;20.90;57.50
8188;DHT22;4135;49.184;9.722;2023-05-10T08:57:25;20.90;57.70
8188;DHT22;4135;49.184;9.722;2023-05-10T08:59:55;21.00;57.90
8188;DHT22;4135;49.184;9.722;2023-05-10T09:02:25;21.00;57.90
8188;DHT22;4135;49.184;9.722;2023-05-10T09:04:55;21.10;57.90
8188;DHT22;4135;49.184;9.722;2023-05-10T09:07:24;21.10;57.90
8188;DHT22;4135;49.184;9.722;2023-05-10T09:09:54;21.10;57.80
8188;DHT22;4135;49.184;9.722;2023-05-10T09:12:24;21.20;57.80
8188;DHT22;4135;49.184;9.722;2023-05-10T09:14:54;21.40;58.10
8188;DHT22;4135;49.184;9.722;2023-05-10T09:17:25;21.20;57.90
8188;DHT22;4135;49.184;9.722;2023-05-10T09:19:59;21.20;57.90
8188;DHT22;4135;49.184;9.722;2023-05-10T09:22:30;21.20;57.90
8188;DHT22;4135;49.184;9.722;2023-05-10T09:25:09;21.20;57.90
8188;DHT22;4135;49.184;9.722;2023-05-10T09:27:41;21.20;57.80
8188;DHT22;4135;49.184;9.722;2023-05-10T09:30:22;21.20;57.90
8188;DHT22;4135;49.184;9.722;2023-05-10T09:32:53;21.30;57.90
8188;DHT22;4135;49.184;9.722;2023-05-10T09:35:25;21.40;58.00
8188;DHT22;4135;49.184;9.722;2023-05-10T09:37:57;21.30;58.00
8188;DHT22;4135;49.184;9.722;2023-05-10T09:40:28;21.30;57.90
8188;DHT22;4135;49.184;9.722;2023-05-10T09:43:17;21.30;57.90
8188;DHT22;4135;49.184;9.722;2023-05-10T09:45:48;21.30;57.80
8188;DHT22;4135;49.184;9.722;2023-05-10T09:48:23;21.30;57.80
8188;DHT22;4135;49.184;9.722;2023-05-10T09:50:57;21.30;57.70
8188;DHT22;4135;49.184;9.722;2023-05-10T09:53:26;21.10;56.80
8188;DHT22;4135;49.184;9.722;2023-05-10T09:55:56;21.00;56.80
8188;DHT22;4135;49.184;9.722;2023-05-10T09:58:25;21.00;56.80
8188;DHT22;4135;49.184;9.722;2023-05-10T10:00:55;21.10;57.20
8188;DHT22;4135;49.184;9.722;2023-05-10T10:03:26;21.20;57.20
8188;DHT22;4135;49.184;9.722;2023-05-10T10:05:55;21.20;57.40
8188;DHT22;4135;49.184;9.722;2023-05-10T10:08:25;21.20;57.30
8188;DHT22;4135;49.184;9.722;2023-05-10T10:10:54;21.20;57.50
8188;DHT22;4135;49.184;9.722;2023-05-10T10:13:24;21.20;57.50
8188;DHT22;4135;49.184;9.722;2023-05-10T10:15:54;21.30;57.60
8188;DHT22;4135;49.184;9.722;2023-05-10T10:18:24;21.30;57.60
8188;DHT22;4135;49.184;9.722;2023-05-10T10:20:56;21.30;57.60
8188;DHT22;4135;49.184;9.722;2023-05-10T10:23:26;21.40;57.70
8188;DHT22;4135;49.184;9.722;2023-05-10T10:25:56;21.40;58.10
8188;DHT22;4135;49.184;9.722;2023-05-10T10:31:28;21.40;58.00
8188;DHT22;4135;49.184;9.722;2023-05-10T10:34:05;21.40;57.90
8188;DHT22;4135;49.184;9.722;2023-05-10T10:36:44;21.40;58.60
8188;DHT22;4135;49.184;9.722;2023-05-10T10:39:15;21.40;58.10
8188;DHT22;4135;49.184;9.722;2023-05-10T10:41:56;21.30;57.90
8188;DHT22;4135;49.184;9.722;2023-05-10T10:52:36;21.40;58.20
8188;DHT22;4135;49.184;9.722;2023-05-10T10:55:08;21.40;58.30
8188;DHT22;4135;49.184;9.722;2023-05-10T10:57:48;21.40;58.50
8188;DHT22;4135;49.184;9.722;2023-05-10T11:08:16;21.40;58.40
8188;DHT22;4135;49.184;9.722;2023-05-10T11:11:06;21.40;58.40
8188;DHT22;4135;49.184;9.722;2023-05-10T11:13:44;21.40;58.10
8188;DHT22;4135;49.184;9.722;2023-05-10T11:19:03;21.40;58.10
8188;DHT22;4135;49.184;9.722;2023-05-10T11:21:33;21.30;57.80
8188;DHT22;4135;49.184;9.722;2023-05-10T11:24:13;21.30;57.70
8188;DHT22;4135;49.184;9.722;2023-05-10T11:26:42;21.30;57.80
8188;DHT22;4135;49.184;9.722;2023-05-10T11:29:13;21.30;57.90
8188;DHT22;4135;49.184;9.722;2023-05-10T11:31:44;21.30;58.10
8188;DHT22;4135;49.184;9.722;2023-05-10T11:34:28;21.40;58.10
8188;DHT22;4135;49.184;9.722;2023-05-10T11:37:07;21.40;58.00
8188;DHT22;4135;49.184;9.722;2023-05-10T11:39:36;21.40;58.10
8188;DHT22;4135;49.184;9.722;2023-05-10T11:42:06;21.40;58.10
8188;DHT22;4135;49.184;9.722;2023-05-10T11:44:38;21.40;58.10
8188;DHT22;4135;49.184;9.722;2023-05-10T11:47:08;21.40;58.10
8188;DHT22;4135;49.184;9.722;2023-05-10T11:49:37;21.40;58.20
8188;DHT22;4135;49.184;9.722;2023-05-10T11:52:07;21.50;58.10
8188;DHT22;4135;49.184;9.722;2023-05-10T11:54:37;21.50;58.10
8188;DHT22;4135;49.184;9.722;2023-05-10T11:57:07;21.50;58.10
8188;DHT22;4135;49.184;9.722;2023-05-10T11:59:36;21.50;58.10
8188;DHT22;4135;49.184;9.722;2023-05-10T12:02:06;21.50;58.10
8188;DHT22;4135;49.184;9.722;2023-05-10T12:04:36;21.50;58.10
8188;DHT22;4135;49.184;9.722;2023-05-10T12:07:05;21.40;57.80
8188;DHT22;4135;49.184;9.722;2023-05-10T12:09:35;21.40;57.80
8188;DHT22;4135;49.184;9.722;2023-05-10T12:12:04;21.40;57.80
8188;DHT22;4135;49.184;9.722;2023-05-10T12:14:35;21.40;57.70
8188;DHT22;4135;49.184;9.722;2023-05-10T12:17:04;21.30;57.50
8188;DHT22;4135;49.184;9.722;2023-05-10T12:19:38;21.30;57.50
8188;DHT22;4135;49.184;9.722;2023-05-10T12:22:08;21.30;57.50
8188;DHT22;4135;49.184;9.722;2023-05-10T12:24:37;21.30;57.50
8188;DHT22;4135;49.184;9.722;2023-05-10T12:27:08;21.20;57.40
8188;DHT22;4135;49.184;9.722;2023-05-10T12:29:41;21.30;57.50
8188;DHT22;4135;49.184;9.722;2023-05-10T12:32:13;21.30;57.50
8188;DHT22;4135;49.184;9.722;2023-05-10T12:34:42;21.30;57.50
8188;DHT22;4135;49.184;9.722;2023-05-10T12:37:12;21.40;57.60
8188;DHT22;4135;49.184;9.722;2023-05-10T12:39:43;21.30;57.40
8188;DHT22;4135;49.184;9.722;2023-05-10T12:42:13;21.30;57.40
8188;DHT22;4135;49.184;9.722;2023-05-10T12:44:42;21.40;57.50
8188;DHT22;4135;49.184;9.722;2023-05-10T12:47:12;21.30;57.40
8188;DHT22;4135;49.184;9.722;2023-05-10T12:49:41;21.30;57.40
8188;DHT22;4135;49.184;9.722;2023-05-10T12:52:11;21.30;57.40
8188;DHT22;4135;49.184;9.722;2023-05-10T12:54:40;21.30;57.40
8188;DHT22;4135;49.184;9.722;2023-05-10T12:57:10;21.30;57.40
8188;DHT22;4135;49.184;9.722;2023-05-10T12:59:39;21.30;57.40
8188;DHT22;4135;49.184;9.722;2023-05-10T13:02:09;21.30;57.30
8188;DHT22;4135;49.184;9.722;2023-05-10T13:04:39;21.30;57.30
8188;DHT22;4135;49.184;9.722;2023-05-10T13:07:09;21.30;57.30
8188;DHT22;4135;49.184;9.722;2023-05-10T13:09:39;21.30;57.30
8188;DHT22;4135;49.184;9.722;2023-05-10T13:12:09;21.30;57.30
8188;DHT22;4135;49.184;9.722;2023-05-10T13:14:39;21.30;57.20
8188;DHT22;4135;49.184;9.722;2023-05-10T13:17:09;21.30;57.20
8188;DHT22;4135;49.184;9.722;2023-05-10T13:19:39;21.30;57.20
8188;DHT22;4135;49.184;9.722;2023-05-10T13:22:09;21.30;57.20
8188;DHT22;4135;49.184;9.722;2023-05-10T13:24:38;21.30;57.20
8188;DHT22;4135;49.184;9.722;2023-05-10T13:27:08;21.30;57.20
8188;DHT22;4135;49.184;9.722;2023-05-10T13:29:37;21.30;57.10
8188;DHT22;4135;49.184;9.722;2023-05-10T13:32:07;21.30;57.10
8188;DHT22;4135;49.184;9.722;2023-05-10T13:34:37;21.30;57.10
8188;DHT22;4135;49.184;9.722;2023-05-10T13:37:06;21.30;57.10
8188;DHT22;4135;49.184;9.722;2023-05-10T13:39:36;21.30;57.20
8188;DHT22;4135;49.184;9.722;2023-05-10T13:42:06;21.30;57.20
8188;DHT22;4135;49.184;9.722;2023-05-10T13:44:36;21.30;57.20
8188;DHT22;4135;49.184;9.722;2023-05-10T13:47:07;21.30;57.20
8188;DHT22;4135;49.184;9.722;2023-05-10T13:49:37;21.30;57.20
8188;DHT22;4135;49.184;9.722;2023-05-10T13:52:07;21.30;57.30
8188;DHT22;4135;49.184;9.722;2023-05-10T13:54:36;21.30;57.30
8188;DHT22;4135;49.184;9.722;2023-05-10T13:57:07;21.40;57.30
8188;DHT22;4135;49.184;9.722;2023-05-10T13:59:36;21.30;57.30
8188;DHT22;4135;49.184;9.722;2023-05-10T14:02:06;21.30;57.20
8188;DHT22;4135;49.184;9.722;2023-05-10T14:04:36;21.30;57.20
8188;DHT22;4135;49.184;9.722;2023-05-10T14:07:05;21.30;57.30
8188;DHT22;4135;49.184;9.722;2023-05-10T14:09:35;21.30;57.30
8188;DHT22;4135;49.184;9.722;2023-05-10T14:12:04;21.30;57.30
8188;DHT22;4135;49.184;9.722;2023-05-10T14:14:34;21.30;57.30
8188;DHT22;4135;49.184;9.722;2023-05-10T14:17:03;21.30;57.30
8188;DHT22;4135;49.184;9.722;2023-05-10T14:19:33;21.20;57.20
8188;DHT22;4135;49.184;9.722;2023-05-10T14:22:03;21.30;57.30
8188;DHT22;4135;49.184;9.722;2023-05-10T14:24:32;21.30;57.30
8188;DHT22;4135;49.184;9.722;2023-05-10T14:27:02;21.30;57.30
8188;DHT22;4135;49.184;9.722;2023-05-10T14:29:31;21.30;57.40
8188;DHT22;4135;49.184;9.722;2023-05-10T14:32:02;21.30;57.30
8188;DHT22;4135;49.184;9.722;2023-05-10T14:34:32;21.30;57.30
8188;DHT22;4135;49.184;9.722;2023-05-10T14:37:01;21.30;57.40
8188;DHT22;4135;49.184;9.722;2023-05-10T14:39:31;21.30;57.30
8188;DHT22;4135;49.184;9.722;2023-05-10T14:42:01;21.30;57.10
8188;DHT22;4135;49.184;9.722;2023-05-10T14:44:31;21.30;57.10
8188;DHT22;4135;49.184;9.722;2023-05-10T14:47:01;21.20;57.10
8188;DHT22;4135;49.184;9.722;2023-05-10T14:49:30;21.30;57.30
8188;DHT22;4135;49.184;9.722;2023-05-10T14:52:00;21.30;57.20
8188;DHT22;4135;49.184;9.722;2023-05-10T14:54:30;21.30;57.20
8188;DHT22;4135;49.184;9.722;2023-05-10T14:56:59;21.20;56.60
8188;DHT22;4135;49.184;9.722;2023-05-10T14:59:29;21.00;56.30
8188;DHT22;4135;49.184;9.722;2023-05-10T15:01:59;21.00;56.30
8188;DHT22;4135;49.184;9.722;2023-05-10T15:04:28;21.10;56.50
8188;DHT22;4135;49.184;9.722;2023-05-10T15:06:58;21.10;56.70
8188;DHT22;4135;49.184;9.722;2023-05-10T15:09:28;21.10;56.60
8188;DHT22;4135;49.184;9.722;2023-05-10T15:11:58;21.10;56.70
8188;DHT22;4135;49.184;9.722;2023-05-10T15:14:27;21.20;56.70
8188;DHT22;4135;49.184;9.722;2023-05-10T15:16:57;21.20;57.30
8188;DHT22;4135;49.184;9.722;2023-05-10T15:19:26;21.20;56.70
8188;DHT22;4135;49.184;9.722;2023-05-10T15:21:58;21.20;56.80
8188;DHT22;4135;49.184;9.722;2023-05-10T15:24:27;21.20;56.80
8188;DHT22;4135;49.184;9.722;2023-05-10T15:26:57;21.20;56.70
8188;DHT22;4135;49.184;9.722;2023-05-10T15:29:26;21.20;56.80
8188;DHT22;4135;49.184;9.722;2023-05-10T15:31:56;21.20;56.80
8188;DHT22;4135;49.184;9.722;2023-05-10T15:34:25;21.20;56.80
8188;DHT22;4135;49.184;9.722;2023-05-10T15:36:55;21.20;56.60
8188;DHT22;4135;49.184;9.722;2023-05-10T15:39:24;21.10;55.90
8188;DHT22;4135;49.184;9.722;2023-05-10T15:41:54;21.10;55.50
8188;DHT22;4135;49.184;9.722;2023-05-10T15:44:23;21.00;55.50
8188;DHT22;4135;49.184;9.722;2023-05-10T15:46:53;21.00;55.20
8188;DHT22;4135;49.184;9.722;2023-05-10T15:49:22;21.00;55.60
8188;DHT22;4135;49.184;9.722;2023-05-10T15:51:52;21.00;55.70
8188;DHT22;4135;49.184;9.722;2023-05-10T15:54:22;21.10;55.70
8188;DHT22;4135;49.184;9.722;2023-05-10T15:56:51;21.00;56.10
8188;DHT22;4135;49.184;9.722;2023-05-10T15:59:23;21.00;55.50
8188;DHT22;4135;49.184;9.722;2023-05-10T16:01:52;21.00;55.60
8188;DHT22;4135;49.184;9.722;2023-05-10T16:04:22;21.00;55.50
8188;DHT22;4135;49.184;9.722;2023-05-10T16:06:52;20.90;55.60
8188;DHT22;4135;49.184;9.722;2023-05-10T16:09:21;21.40;56.60
8188;DHT22;4135;49.184;9.722;2023-05-10T16:11:51;21.00;55.60
8188;DHT22;4135;49.184;9.722;2023-05-10T16:14:20;21.00;55.40
8188;DHT22;4135;49.184;9.722;2023-05-10T16:16:52;21.00;55.60
8188;DHT22;4135;49.184;9.722;2023-05-10T16:19:22;21.00;55.70
8188;DHT22;4135;49.184;9.722;2023-05-10T16:21:51;21.10;55.70
8188;DHT22;4135;49.184;9.722;2023-05-10T16:24:21;21.10;55.60
8188;DHT22;4135;49.184;9.722;2023-05-10T16:26:50;21.10;55.80
8188;DHT22;4135;49.184;9.722;2023-05-10T16:29:20;21.10;55.90
8188;DHT22;4135;49.184;9.722;2023-05-10T16:31:49;21.20;56.00
8188;DHT22;4135;49.184;9.722;2023-05-10T16:34:19;21.20;56.10
8188;DHT22;4135;49.184;9.722;2023-05-10T16:36:52;21.20;56.10
8188;DHT22;4135;49.184;9.722;2023-05-10T16:39:21;21.20;56.10
8188;DHT22;4135;49.184;9.722;2023-05-10T16:41:51;21.10;56.00
8188;DHT22;4135;49.184;9.722;2023-05-10T16:44:21;21.20;56.10
8188;DHT22;4135;49.184;9.722;2023-05-10T16:46:50;21.20;56.00
8188;DHT22;4135;49.184;9.722;2023-05-10T16:49:21;21.20;56.10
8188;DHT22;4135;49.184;9.722;2023-05-10T16:51:51;21.10;56.00
8188;DHT22;4135;49.184;9.722;2023-05-10T16:54:20;21.20;56.10
8188;DHT22;4135;49.184;9.722;2023-05-10T16:56:50;21.20;56.20
8188;DHT22;4135;49.184;9.722;2023-05-10T16:59:19;21.20;56.20